sensor_id;sensor_type;location;lat;lon;timestamp;P1;durP1;ratioP1;P2;durP2;ratioP2
22388;SDS011;11362;48.102;11.620;2023-03-26T00:01:32;1.97;;;0.87;;
22388;SDS011;11362;48.102;11.620;2023-03-26T00:03:58;1.03;;;0.90;;
22388;SDS011;11362;48.102;11.620;2023-03-26T00:06:25;2.77;;;0.83;;
22388;SDS011;11362;48.102;11.620;2023-03-26T00:08:52;1.57;;;0.80;;
22388;SDS011;11362;48.102;11.620;2023-03-26T00:11:19;2.40;;;0.90;;
22388;SDS011;11362;48.102;11.620;2023-03-26T00:13:47;2.13;;;0.70;;
22388;SDS011;11362;48.102;11.620;2023-03-26T00:16:14;2.43;;;0.80;;
22388;SDS011;11362;48.102;11.620;2023-03-26T00:18:41;1.83;;;0.80;;
22388;SDS011;11362;48.102;11.620;2023-03-26T00:21:07;2.30;;;0.90;;
22388;SDS011;11362;48.102;11.620;2023-03-26T00:23:36;2.23;;;0.80;;
22388;SDS011;11362;48.102;11.620;2023-03-26T00:26:02;1.90;;;0.87;;
22388;SDS011;11362;48.102;11.620;2023-03-26T00:28:28;2.50;;;0.90;;
22388;SDS011;11362;48.102;11.620;2023-03-26T00:30:58;2.47;;;0.87;;
22388;SDS011;11362;48.102;11.620;2023-03-26T00:33:26;2.00;;;0.77;;
22388;SDS011;11362;48.102;11.620;2023-03-26T00:35:52;1.97;;;0.87;;
22388;SDS011;11362;48.102;11.620;2023-03-26T00:38:20;2.33;;;0.87;;
22388;SDS011;11362;48.102;11.620;2023-03-26T00:40:46;0.83;;;0.50;;
22388;SDS011;11362;48.102;11.620;2023-03-26T00:43:13;1.33;;;0.80;;
22388;SDS011;11362;48.102;11.620;2023-03-26T00:45:38;1.93;;;0.80;;
22388;SDS011;11362;48.102;11.620;2023-03-26T00:48:04;0.93;;;0.60;;
22388;SDS011;11362;48.102;11.620;2023-03-26T00:50:29;0.90;;;0.80;;
22388;SDS011;11362;48.102;11.620;2023-03-26T00:52:54;0.67;;;0.50;;
22388;SDS011;11362;48.102;11.620;2023-03-26T00:55:20;0.73;;;0.60;;
22388;SDS011;11362;48.102;11.620;2023-03-26T00:57:45;1.20;;;0.83;;
22388;SDS011;11362;48.102;11.620;2023-03-26T01:00:11;2.03;;;0.93;;
22388;SDS011;11362;48.102;11.620;2023-03-26T01:02:37;1.13;;;0.77;;
22388;SDS011;11362;48.102;11.620;2023-03-26T01:05:25;0.53;;;0.40;;
22388;SDS011;11362;48.102;11.620;2023-03-26T01:07:56;1.30;;;0.30;;
22388;SDS011;11362;48.102;11.620;2023-03-26T01:10:22;2.90;;;0.77;;
22388;SDS011;11362;48.102;11.620;2023-03-26T01:12:48;2.87;;;0.40;;
22388;SDS011;11362;48.102;11.620;2023-03-26T01:15:13;2.73;;;0.77;;
22388;SDS011;11362;48.102;11.620;2023-03-26T01:17:38;1.37;;;0.57;;
22388;SDS011;11362;48.102;11.620;2023-03-26T01:20:12;1.30;;;0.70;;
22388;SDS011;11362;48.102;11.620;2023-03-26T01:22:44;1.77;;;0.67;;
22388;SDS011;11362;48.102;11.620;2023-03-26T01:25:15;1.87;;;0.63;;
22388;SDS011;11362;48.102;11.620;2023-03-26T01:27:46;2.30;;;0.90;;
22388;SDS011;11362;48.102;11.620;2023-03-26T01:30:23;0.80;;;0.60;;
22388;SDS011;11362;48.102;11.620;2023-03-26T01:38:32;0.63;;;0.63;;
22388;SDS011;11362;48.102;11.620;2023-03-26T01:40:59;0.43;;;0.37;;
22388;SDS011;11362;48.102;11.620;2023-03-26T01:43:36;0.70;;;0.60;;
22388;SDS011;11362;48.102;11.620;2023-03-26T01:46:08;2.63;;;0.60;;
22388;SDS011;11362;48.102;11.620;2023-03-26T01:48:38;1.57;;;0.83;;
22388;SDS011;11362;48.102;11.620;2023-03-26T01:51:06;0.87;;;0.60;;
22388;SDS011;11362;48.102;11.620;2023-03-26T01:53:34;1.33;;;0.60;;
22388;SDS011;11362;48.102;11.620;2023-03-26T02:01:54;1.07;;;0.63;;
22388;SDS011;11362;48.102;11.620;2023-03-26T02:04:38;1.50;;;0.70;;
22388;SDS011;11362;48.102;11.620;2023-03-26T02:07:14;1.63;;;0.80;;
22388;SDS011;11362;48.102;11.620;2023-03-26T02:09:43;1.57;;;0.40;;
22388;SDS011;11362;48.102;11.620;2023-03-26T02:12:12;1.20;;;0.60;;
22388;SDS011;11362;48.102;11.620;2023-03-26T02:14:38;1.50;;;0.60;;
22388;SDS011;11362;48.102;11.620;2023-03-26T02:17:04;1.00;;;0.90;;
22388;SDS011;11362;48.102;11.620;2023-03-26T02:19:30;1.53;;;0.50;;
22388;SDS011;11362;48.102;11.620;2023-03-26T02:21:55;0.77;;;0.63;;
22388;SDS011;11362;48.102;11.620;2023-03-26T02:24:20;1.80;;;0.73;;
22388;SDS011;11362;48.102;11.620;2023-03-26T02:26:45;0.87;;;0.73;;
22388;SDS011;11362;48.102;11.620;2023-03-26T02:29:12;0.70;;;0.70;;
22388;SDS011;11362;48.102;11.620;2023-03-26T02:31:38;0.50;;;0.47;;
22388;SDS011;11362;48.102;11.620;2023-03-26T02:34:04;0.63;;;0.63;;
22388;SDS011;11362;48.102;11.620;2023-03-26T02:36:29;0.77;;;0.63;;
22388;SDS011;11362;48.102;11.620;2023-03-26T02:38:54;1.93;;;0.70;;
22388;SDS011;11362;48.102;11.620;2023-03-26T02:41:20;0.63;;;0.63;;
22388;SDS011;11362;48.102;11.620;2023-03-26T02:43:45;1.83;;;0.97;;
22388;SDS011;11362;48.102;11.620;2023-03-26T02:46:11;0.73;;;0.70;;
22388;SDS011;11362;48.102;11.620;2023-03-26T02:48:36;1.07;;;0.60;;
22388;SDS011;11362;48.102;11.620;2023-03-26T02:51:02;1.17;;;0.70;;
22388;SDS011;11362;48.102;11.620;2023-03-26T02:53:28;0.67;;;0.60;;
22388;SDS011;11362;48.102;11.620;2023-03-26T02:55:53;2.40;;;0.80;;
22388;SDS011;11362;48.102;11.620;2023-03-26T02:58:19;0.67;;;0.50;;
22388;SDS011;11362;48.102;11.620;2023-03-26T03:00:45;0.67;;;0.60;;
22388;SDS011;11362;48.102;11.620;2023-03-26T03:03:11;0.47;;;0.40;;
22388;SDS011;11362;48.102;11.620;2023-03-26T03:05:37;1.77;;;0.67;;
22388;SDS011;11362;48.102;11.620;2023-03-26T03:08:03;1.53;;;0.60;;
22388;SDS011;11362;48.102;11.620;2023-03-26T03:10:28;0.70;;;0.70;;
22388;SDS011;11362;48.102;11.620;2023-03-26T03:12:54;0.90;;;0.77;;
22388;SDS011;11362;48.102;11.620;2023-03-26T03:15:19;0.70;;;0.70;;
22388;SDS011;11362;48.102;11.620;2023-03-26T03:17:45;1.03;;;0.63;;
22388;SDS011;11362;48.102;11.620;2023-03-26T03:20:11;1.47;;;0.83;;
22388;SDS011;11362;48.102;11.620;2023-03-26T03:22:36;0.60;;;0.60;;
22388;SDS011;11362;48.102;11.620;2023-03-26T03:25:02;0.90;;;0.63;;
22388;SDS011;11362;48.102;11.620;2023-03-26T03:27:29;1.30;;;0.50;;
22388;SDS011;11362;48.102;11.620;2023-03-26T03:29:54;0.63;;;0.63;;
22388;SDS011;11362;48.102;11.620;2023-03-26T03:32:21;0.97;;;0.50;;
22388;SDS011;11362;48.102;11.620;2023-03-26T03:34:48;0.43;;;0.43;;
22388;SDS011;11362;48.102;11.620;2023-03-26T03:37:13;2.20;;;0.60;;
22388;SDS011;11362;48.102;11.620;2023-03-26T03:39:39;1.37;;;0.90;;
22388;SDS011;11362;48.102;11.620;2023-03-26T03:42:04;1.70;;;0.50;;
22388;SDS011;11362;48.102;11.620;2023-03-26T03:44:29;0.70;;;0.40;;
22388;SDS011;11362;48.102;11.620;2023-03-26T03:46:54;0.87;;;0.50;;
22388;SDS011;11362;48.102;11.620;2023-03-26T03:49:20;2.30;;;0.70;;
22388;SDS011;11362;48.102;11.620;2023-03-26T03:51:46;0.73;;;0.50;;
22388;SDS011;11362;48.102;11.620;2023-03-26T03:54:11;0.53;;;0.53;;
22388;SDS011;11362;48.102;11.620;2023-03-26T03:56:37;1.03;;;0.57;;
22388;SDS011;11362;48.102;11.620;2023-03-26T03:59:02;0.97;;;0.70;;
22388;SDS011;11362;48.102;11.620;2023-03-26T04:01:28;0.50;;;0.50;;
22388;SDS011;11362;48.102;11.620;2023-03-26T04:03:53;0.40;;;0.40;;
22388;SDS011;11362;48.102;11.620;2023-03-26T04:06:19;0.67;;;0.63;;
22388;SDS011;11362;48.102;11.620;2023-03-26T04:08:45;1.00;;;0.60;;
22388;SDS011;11362;48.102;11.620;2023-03-26T04:11:11;0.73;;;0.70;;
22388;SDS011;11362;48.102;11.620;2023-03-26T04:13:38;1.17;;;0.80;;
22388;SDS011;11362;48.102;11.620;2023-03-26T04:16:03;0.67;;;0.53;;
22388;SDS011;11362;48.102;11.620;2023-03-26T04:18:29;0.63;;;0.60;;
22388;SDS011;11362;48.102;11.620;2023-03-26T04:20:54;1.10;;;0.63;;
22388;SDS011;11362;48.102;11.620;2023-03-26T04:23:20;0.97;;;0.83;;
22388;SDS011;11362;48.102;11.620;2023-03-26T04:25:51;0.90;;;0.60;;
22388;SDS011;11362;48.102;11.620;2023-03-26T04:28:28;0.60;;;0.50;;
22388;SDS011;11362;48.102;11.620;2023-03-26T04:30:57;0.77;;;0.60;;
22388;SDS011;11362;48.102;11.620;2023-03-26T04:33:26;1.70;;;0.70;;
22388;SDS011;11362;48.102;11.620;2023-03-26T04:35:56;0.50;;;0.30;;
22388;SDS011;11362;48.102;11.620;2023-03-26T04:38:22;1.13;;;0.67;;
22388;SDS011;11362;48.102;11.620;2023-03-26T04:40:47;0.97;;;0.47;;
22388;SDS011;11362;48.102;11.620;2023-03-26T04:43:14;0.47;;;0.40;;
22388;SDS011;11362;48.102;11.620;2023-03-26T04:45:40;1.50;;;0.60;;
22388;SDS011;11362;48.102;11.620;2023-03-26T04:48:07;0.53;;;0.53;;
22388;SDS011;11362;48.102;11.620;2023-03-26T04:50:33;1.00;;;0.47;;
22388;SDS011;11362;48.102;11.620;2023-03-26T04:52:58;0.47;;;0.47;;
22388;SDS011;11362;48.102;11.620;2023-03-26T04:55:28;0.53;;;0.50;;
22388;SDS011;11362;48.102;11.620;2023-03-26T04:57:59;0.67;;;0.40;;
22388;SDS011;11362;48.102;11.620;2023-03-26T05:00:25;0.83;;;0.60;;
22388;SDS011;11362;48.102;11.620;2023-03-26T05:02:50;0.40;;;0.40;;
22388;SDS011;11362;48.102;11.620;2023-03-26T05:05:16;0.50;;;0.50;;
22388;SDS011;11362;48.102;11.620;2023-03-26T05:07:41;0.70;;;0.50;;
22388;SDS011;11362;48.102;11.620;2023-03-26T05:10:07;0.40;;;0.40;;
22388;SDS011;11362;48.102;11.620;2023-03-26T05:12:36;0.83;;;0.50;;
22388;SDS011;11362;48.102;11.620;2023-03-26T05:15:01;0.60;;;0.60;;
22388;SDS011;11362;48.102;11.620;2023-03-26T05:17:27;0.83;;;0.50;;
22388;SDS011;11362;48.102;11.620;2023-03-26T05:19:53;0.60;;;0.57;;
22388;SDS011;11362;48.102;11.620;2023-03-26T05:22:18;0.50;;;0.50;;
22388;SDS011;11362;48.102;11.620;2023-03-26T05:24:44;0.77;;;0.57;;
22388;SDS011;11362;48.102;11.620;2023-03-26T05:27:13;0.50;;;0.50;;
22388;SDS011;11362;48.102;11.620;2023-03-26T05:29:40;0.87;;;0.70;;
22388;SDS011;11362;48.102;11.620;2023-03-26T05:32:05;0.53;;;0.53;;
22388;SDS011;11362;48.102;11.620;2023-03-26T05:34:31;0.50;;;0.47;;
22388;SDS011;11362;48.102;11.620;2023-03-26T05:36:57;0.60;;;0.60;;
22388;SDS011;11362;48.102;11.620;2023-03-26T05:39:22;0.50;;;0.50;;
22388;SDS011;11362;48.102;11.620;2023-03-26T05:41:49;0.77;;;0.60;;
22388;SDS011;11362;48.102;11.620;2023-03-26T05:44:14;0.60;;;0.50;;
22388;SDS011;11362;48.102;11.620;2023-03-26T05:46:40;0.47;;;0.43;;
22388;SDS011;11362;48.102;11.620;2023-03-26T05:49:05;0.73;;;0.50;;
22388;SDS011;11362;48.102;11.620;2023-03-26T05:51:31;0.70;;;0.60;;
22388;SDS011;11362;48.102;11.620;2023-03-26T05:53:56;0.53;;;0.47;;
22388;SDS011;11362;48.102;11.620;2023-03-26T05:56:22;0.83;;;0.53;;
22388;SDS011;11362;48.102;11.620;2023-03-26T05:58:47;0.57;;;0.57;;
22388;SDS011;11362;48.102;11.620;2023-03-26T06:01:13;0.60;;;0.47;;
22388;SDS011;11362;48.102;11.620;2023-03-26T06:03:38;1.33;;;0.67;;
22388;SDS011;11362;48.102;11.620;2023-03-26T06:06:08;0.53;;;0.50;;
22388;SDS011;11362;48.102;11.620;2023-03-26T06:08:36;1.03;;;0.57;;
22388;SDS011;11362;48.102;11.620;2023-03-26T06:11:02;1.60;;;0.70;;
22388;SDS011;11362;48.102;11.620;2023-03-26T06:13:29;4.30;;;1.00;;
22388;SDS011;11362;48.102;11.620;2023-03-26T06:15:55;5.13;;;0.90;;
22388;SDS011;11362;48.102;11.620;2023-03-26T06:18:21;5.97;;;1.03;;
22388;SDS011;11362;48.102;11.620;2023-03-26T06:20:46;12.37;;;1.40;;
22388;SDS011;11362;48.102;11.620;2023-03-26T06:23:12;11.13;;;1.60;;
22388;SDS011;11362;48.102;11.620;2023-03-26T06:25:37;5.67;;;1.33;;
22388;SDS011;11362;48.102;11.620;2023-03-26T06:28:03;6.93;;;1.53;;
22388;SDS011;11362;48.102;11.620;2023-03-26T06:30:29;15.27;;;2.03;;
22388;SDS011;11362;48.102;11.620;2023-03-26T06:32:54;13.67;;;1.60;;
22388;SDS011;11362;48.102;11.620;2023-03-26T06:35:20;8.93;;;1.87;;
22388;SDS011;11362;48.102;11.620;2023-03-26T06:37:46;12.53;;;2.10;;
22388;SDS011;11362;48.102;11.620;2023-03-26T06:40:12;7.37;;;1.90;;
22388;SDS011;11362;48.102;11.620;2023-03-26T06:42:38;13.53;;;1.53;;
22388;SDS011;11362;48.102;11.620;2023-03-26T06:45:04;9.37;;;1.60;;
22388;SDS011;11362;48.102;11.620;2023-03-26T06:47:30;31.00;;;3.27;;
22388;SDS011;11362;48.102;11.620;2023-03-26T06:49:55;9.27;;;2.47;;
22388;SDS011;11362;48.102;11.620;2023-03-26T06:52:21;11.47;;;2.30;;
22388;SDS011;11362;48.102;11.620;2023-03-26T06:54:46;11.03;;;1.70;;
22388;SDS011;11362;48.102;11.620;2023-03-26T06:57:12;13.80;;;2.00;;
22388;SDS011;11362;48.102;11.620;2023-03-26T06:59:37;6.17;;;1.77;;
22388;SDS011;11362;48.102;11.620;2023-03-26T07:02:02;9.80;;;1.97;;
22388;SDS011;11362;48.102;11.620;2023-03-26T07:04:28;10.50;;;1.97;;
22388;SDS011;11362;48.102;11.620;2023-03-26T07:06:54;8.03;;;1.73;;
22388;SDS011;11362;48.102;11.620;2023-03-26T07:09:19;8.27;;;2.40;;
22388;SDS011;11362;48.102;11.620;2023-03-26T07:11:45;6.03;;;1.80;;
22388;SDS011;11362;48.102;11.620;2023-03-26T07:14:10;5.77;;;1.70;;
22388;SDS011;11362;48.102;11.620;2023-03-26T07:16:36;4.83;;;1.50;;
22388;SDS011;11362;48.102;11.620;2023-03-26T07:19:01;12.90;;;1.87;;
22388;SDS011;11362;48.102;11.620;2023-03-26T07:21:27;6.60;;;2.03;;
22388;SDS011;11362;48.102;11.620;2023-03-26T07:23:52;12.43;;;1.60;;
22388;SDS011;11362;48.102;11.620;2023-03-26T07:29:09;12.47;;;2.00;;
22388;SDS011;11362;48.102;11.620;2023-03-26T07:34:14;4.23;;;1.30;;
22388;SDS011;11362;48.102;11.620;2023-03-26T07:36:52;3.30;;;1.30;;
22388;SDS011;11362;48.102;11.620;2023-03-26T07:47:45;8.33;;;2.13;;
22388;SDS011;11362;48.102;11.620;2023-03-26T07:50:15;6.33;;;2.17;;
22388;SDS011;11362;48.102;11.620;2023-03-26T07:52:43;8.80;;;2.03;;
22388;SDS011;11362;48.102;11.620;2023-03-26T07:55:13;7.43;;;2.13;;
22388;SDS011;11362;48.102;11.620;2023-03-26T08:00:56;10.17;;;2.00;;
22388;SDS011;11362;48.102;11.620;2023-03-26T08:06:34;10.03;;;2.00;;
22388;SDS011;11362;48.102;11.620;2023-03-26T08:17:06;14.23;;;2.53;;
22388;SDS011;11362;48.102;11.620;2023-03-26T08:19:50;11.87;;;2.60;;
22388;SDS011;11362;48.102;11.620;2023-03-26T08:22:28;9.93;;;2.60;;
22388;SDS011;11362;48.102;11.620;2023-03-26T08:25:03;15.23;;;3.00;;
22388;SDS011;11362;48.102;11.620;2023-03-26T08:30:34;7.00;;;2.70;;
22388;SDS011;11362;48.102;11.620;2023-03-26T08:33:03;12.37;;;2.23;;
22388;SDS011;11362;48.102;11.620;2023-03-26T08:35:37;10.13;;;2.13;;
22388;SDS011;11362;48.102;11.620;2023-03-26T08:38:02;14.53;;;2.50;;
22388;SDS011;11362;48.102;11.620;2023-03-26T08:43:35;13.83;;;2.70;;
22388;SDS011;11362;48.102;11.620;2023-03-26T08:46:19;7.20;;;2.03;;
22388;SDS011;11362;48.102;11.620;2023-03-26T08:49:06;9.93;;;2.37;;
22388;SDS011;11362;48.102;11.620;2023-03-26T08:54:19;5.27;;;1.60;;
22388;SDS011;11362;48.102;11.620;2023-03-26T08:56:51;11.33;;;2.33;;
22388;SDS011;11362;48.102;11.620;2023-03-26T08:59:39;9.27;;;2.37;;
22388;SDS011;11362;48.102;11.620;2023-03-26T09:14:29;11.03;;;2.30;;
22388;SDS011;11362;48.102;11.620;2023-03-26T09:21:09;8.17;;;2.07;;
22388;SDS011;11362;48.102;11.620;2023-03-26T09:23:18;8.77;;;2.60;;
22388;SDS011;11362;48.102;11.620;2023-03-26T09:37:03;10.80;;;3.07;;
22388;SDS011;11362;48.102;11.620;2023-03-26T09:45:28;12.00;;;2.83;;
22388;SDS011;11362;48.102;11.620;2023-03-26T09:51:00;10.53;;;3.27;;
22388;SDS011;11362;48.102;11.620;2023-03-26T09:59:14;12.73;;;2.33;;
22388;SDS011;11362;48.102;11.620;2023-03-26T10:10:29;8.13;;;2.47;;
22388;SDS011;11362;48.102;11.620;2023-03-26T10:15:36;11.30;;;2.93;;
22388;SDS011;11362;48.102;11.620;2023-03-26T10:37:46;10.40;;;2.53;;
22388;SDS011;11362;48.102;11.620;2023-03-26T10:51:49;11.30;;;2.67;;
22388;SDS011;11362;48.102;11.620;2023-03-26T10:54:22;9.57;;;2.67;;
22388;SDS011;11362;48.102;11.620;2023-03-26T10:57:28;10.93;;;2.40;;
22388;SDS011;11362;48.102;11.620;2023-03-26T11:00:11;12.20;;;2.50;;
22388;SDS011;11362;48.102;11.620;2023-03-26T11:02:42;11.73;;;2.83;;
22388;SDS011;11362;48.102;11.620;2023-03-26T11:05:37;13.20;;;2.57;;
22388;SDS011;11362;48.102;11.620;2023-03-26T11:08:13;8.87;;;2.10;;
22388;SDS011;11362;48.102;11.620;2023-03-26T11:13:37;12.63;;;2.63;;
22388;SDS011;11362;48.102;11.620;2023-03-26T11:19:20;9.47;;;2.77;;
22388;SDS011;11362;48.102;11.620;2023-03-26T11:22:01;9.67;;;2.70;;
22388;SDS011;11362;48.102;11.620;2023-03-26T11:33:14;13.47;;;2.63;;
22388;SDS011;11362;48.102;11.620;2023-03-26T11:35:47;9.60;;;2.50;;
22388;SDS011;11362;48.102;11.620;2023-03-26T11:38:20;9.37;;;2.63;;
22388;SDS011;11362;48.102;11.620;2023-03-26T11:40:53;8.57;;;2.07;;
22388;SDS011;11362;48.102;11.620;2023-03-26T11:43:22;11.53;;;2.33;;
22388;SDS011;11362;48.102;11.620;2023-03-26T11:45:53;9.20;;;2.47;;
22388;SDS011;11362;48.102;11.620;2023-03-26T11:48:32;4.70;;;1.93;;
22388;SDS011;11362;48.102;11.620;2023-03-26T11:51:22;10.00;;;2.17;;
22388;SDS011;11362;48.102;11.620;2023-03-26T11:53:53;9.43;;;2.03;;
22388;SDS011;11362;48.102;11.620;2023-03-26T11:59:16;7.20;;;1.90;;
22388;SDS011;11362;48.102;11.620;2023-03-26T12:01:51;8.60;;;2.27;;
22388;SDS011;11362;48.102;11.620;2023-03-26T12:04:38;4.20;;;1.77;;
22388;SDS011;11362;48.102;11.620;2023-03-26T12:07:13;8.43;;;2.50;;
22388;SDS011;11362;48.102;11.620;2023-03-26T12:09:51;4.73;;;1.83;;
22388;SDS011;11362;48.102;11.620;2023-03-26T12:12:16;7.37;;;1.83;;
22388;SDS011;11362;48.102;11.620;2023-03-26T12:14:42;6.03;;;1.93;;
22388;SDS011;11362;48.102;11.620;2023-03-26T12:17:12;4.07;;;1.67;;
22388;SDS011;11362;48.102;11.620;2023-03-26T12:19:48;7.20;;;1.50;;
22388;SDS011;11362;48.102;11.620;2023-03-26T12:25:00;5.10;;;1.77;;
22388;SDS011;11362;48.102;11.620;2023-03-26T12:27:41;4.10;;;1.40;;
22388;SDS011;11362;48.102;11.620;2023-03-26T12:32:38;4.50;;;1.57;;
22388;SDS011;11362;48.102;11.620;2023-03-26T12:35:05;4.10;;;1.33;;
22388;SDS011;11362;48.102;11.620;2023-03-26T12:37:38;5.97;;;2.00;;
22388;SDS011;11362;48.102;11.620;2023-03-26T12:40:24;2.03;;;1.43;;
22388;SDS011;11362;48.102;11.620;2023-03-26T12:42:59;5.03;;;1.30;;
22388;SDS011;11362;48.102;11.620;2023-03-26T12:48:07;6.33;;;2.07;;
22388;SDS011;11362;48.102;11.620;2023-03-26T12:50:40;4.63;;;1.40;;
22388;SDS011;11362;48.102;11.620;2023-03-26T12:53:29;1.47;;;1.10;;
22388;SDS011;11362;48.102;11.620;2023-03-26T12:59:13;3.57;;;1.03;;
22388;SDS011;11362;48.102;11.620;2023-03-26T13:01:58;3.20;;;1.23;;
22388;SDS011;11362;48.102;11.620;2023-03-26T13:10:35;2.63;;;1.10;;
22388;SDS011;11362;48.102;11.620;2023-03-26T13:19:31;2.47;;;1.27;;
22388;SDS011;11362;48.102;11.620;2023-03-26T13:22:22;2.23;;;1.07;;
22388;SDS011;11362;48.102;11.620;2023-03-26T13:24:56;3.87;;;1.27;;
22388;SDS011;11362;48.102;11.620;2023-03-26T13:30:14;1.77;;;0.63;;
22388;SDS011;11362;48.102;11.620;2023-03-26T13:33:09;2.60;;;1.27;;
22388;SDS011;11362;48.102;11.620;2023-03-26T13:38:22;2.53;;;0.80;;
22388;SDS011;11362;48.102;11.620;2023-03-26T13:46:57;1.73;;;1.13;;
22388;SDS011;11362;48.102;11.620;2023-03-26T13:51:59;1.53;;;0.73;;
22388;SDS011;11362;48.102;11.620;2023-03-26T13:54:38;2.37;;;0.97;;
22388;SDS011;11362;48.102;11.620;2023-03-26T13:57:17;1.53;;;1.07;;
22388;SDS011;11362;48.102;11.620;2023-03-26T14:02:37;1.80;;;1.00;;
22388;SDS011;11362;48.102;11.620;2023-03-26T14:05:05;0.90;;;0.70;;
22388;SDS011;11362;48.102;11.620;2023-03-26T14:07:54;1.00;;;0.90;;
22388;SDS011;11362;48.102;11.620;2023-03-26T14:10:27;1.40;;;0.90;;
22388;SDS011;11362;48.102;11.620;2023-03-26T14:12:57;1.20;;;0.57;;
22388;SDS011;11362;48.102;11.620;2023-03-26T14:15:45;0.70;;;0.70;;
22388;SDS011;11362;48.102;11.620;2023-03-26T14:18:32;1.13;;;0.90;;
22388;SDS011;11362;48.102;11.620;2023-03-26T14:21:19;1.47;;;0.77;;
22388;SDS011;11362;48.102;11.620;2023-03-26T14:27:08;0.80;;;0.80;;
22388;SDS011;11362;48.102;11.620;2023-03-26T14:33:11;1.23;;;0.50;;
22388;SDS011;11362;48.102;11.620;2023-03-26T14:49:53;0.70;;;0.70;;
22388;SDS011;11362;48.102;11.620;2023-03-26T14:52:49;1.13;;;0.50;;
22388;SDS011;11362;48.102;11.620;2023-03-26T14:55:31;0.67;;;0.53;;
22388;SDS011;11362;48.102;11.620;2023-03-26T14:58:32;0.70;;;0.70;;
22388;SDS011;11362;48.102;11.620;2023-03-26T15:01:26;1.20;;;0.80;;
22388;SDS011;11362;48.102;11.620;2023-03-26T15:18:10;0.43;;;0.43;;
22388;SDS011;11362;48.102;11.620;2023-03-26T15:27:05;0.60;;;0.50;;
22388;SDS011;11362;48.102;11.620;2023-03-26T15:35:29;0.67;;;0.50;;
22388;SDS011;11362;48.102;11.620;2023-03-26T15:44:40;0.50;;;0.50;;
22388;SDS011;11362;48.102;11.620;2023-03-26T15:46:50;0.63;;;0.63;;
22388;SDS011;11362;48.102;11.620;2023-03-26T15:49:28;0.53;;;0.53;;
22388;SDS011;11362;48.102;11.620;2023-03-26T15:52:03;0.67;;;0.50;;
22388;SDS011;11362;48.102;11.620;2023-03-26T15:54:30;0.73;;;0.60;;
22388;SDS011;11362;48.102;11.620;2023-03-26T15:57:06;1.07;;;0.53;;
22388;SDS011;11362;48.102;11.620;2023-03-26T16:02:45;0.60;;;0.60;;
22388;SDS011;11362;48.102;11.620;2023-03-26T16:08:24;0.50;;;0.50;;
22388;SDS011;11362;48.102;11.620;2023-03-26T16:10:57;2.00;;;0.60;;
22388;SDS011;11362;48.102;11.620;2023-03-26T16:13:32;1.43;;;0.60;;
22388;SDS011;11362;48.102;11.620;2023-03-26T16:33:47;0.43;;;0.40;;
22388;SDS011;11362;48.102;11.620;2023-03-26T16:36:35;0.40;;;0.40;;
22388;SDS011;11362;48.102;11.620;2023-03-26T16:39:55;0.57;;;0.53;;
22388;SDS011;11362;48.102;11.620;2023-03-26T16:47:54;2.23;;;0.43;;
22388;SDS011;11362;48.102;11.620;2023-03-26T16:50:33;2.67;;;0.77;;
22388;SDS011;11362;48.102;11.620;2023-03-26T16:58:54;9.50;;;1.20;;
22388;SDS011;11362;48.102;11.620;2023-03-26T17:01:45;14.93;;;1.50;;
22388;SDS011;11362;48.102;11.620;2023-03-26T17:09:51;4.67;;;1.07;;
22388;SDS011;11362;48.102;11.620;2023-03-26T17:17:56;14.97;;;1.87;;
22388;SDS011;11362;48.102;11.620;2023-03-26T17:20:57;5.60;;;1.63;;
22388;SDS011;11362;48.102;11.620;2023-03-26T17:29:15;5.07;;;1.43;;
22388;SDS011;11362;48.102;11.620;2023-03-26T17:32:10;8.20;;;2.27;;
22388;SDS011;11362;48.102;11.620;2023-03-26T17:37:03;8.43;;;1.87;;
22388;SDS011;11362;48.102;11.620;2023-03-26T17:47:50;8.77;;;1.60;;
22388;SDS011;11362;48.102;11.620;2023-03-26T17:53:14;8.20;;;1.47;;
22388;SDS011;11362;48.102;11.620;2023-03-26T17:55:43;5.37;;;1.73;;
22388;SDS011;11362;48.102;11.620;2023-03-26T17:58:21;6.73;;;1.37;;
22388;SDS011;11362;48.102;11.620;2023-03-26T18:00:51;9.20;;;1.63;;
22388;SDS011;11362;48.102;11.620;2023-03-26T18:03:34;6.30;;;1.53;;
22388;SDS011;11362;48.102;11.620;2023-03-26T18:06:05;7.63;;;1.43;;
22388;SDS011;11362;48.102;11.620;2023-03-26T18:11:54;5.33;;;1.77;;
22388;SDS011;11362;48.102;11.620;2023-03-26T18:17:17;11.03;;;1.60;;
22388;SDS011;11362;48.102;11.620;2023-03-26T18:19:50;9.90;;;1.83;;
22388;SDS011;11362;48.102;11.620;2023-03-26T18:22:19;10.80;;;1.47;;
22388;SDS011;11362;48.102;11.620;2023-03-26T18:24:49;4.87;;;1.10;;
22388;SDS011;11362;48.102;11.620;2023-03-26T18:27:17;5.90;;;1.60;;
22388;SDS011;11362;48.102;11.620;2023-03-26T18:29:45;7.80;;;1.67;;
22388;SDS011;11362;48.102;11.620;2023-03-26T18:32:23;6.63;;;2.03;;
22388;SDS011;11362;48.102;11.620;2023-03-26T18:34:57;10.67;;;1.67;;
22388;SDS011;11362;48.102;11.620;2023-03-26T18:37:36;7.03;;;1.60;;
22388;SDS011;11362;48.102;11.620;2023-03-26T18:42:40;11.87;;;1.67;;
22388;SDS011;11362;48.102;11.620;2023-03-26T18:45:20;6.47;;;1.80;;
22388;SDS011;11362;48.102;11.620;2023-03-26T18:47:51;9.27;;;1.70;;
22388;SDS011;11362;48.102;11.620;2023-03-26T18:50:21;11.27;;;2.23;;
22388;SDS011;11362;48.102;11.620;2023-03-26T18:52:49;16.20;;;3.00;;
22388;SDS011;11362;48.102;11.620;2023-03-26T18:55:15;10.27;;;2.00;;
22388;SDS011;11362;48.102;11.620;2023-03-26T18:57:41;11.63;;;2.30;;
22388;SDS011;11362;48.102;11.620;2023-03-26T19:00:14;6.37;;;2.30;;
22388;SDS011;11362;48.102;11.620;2023-03-26T19:02:43;8.30;;;2.30;;
22388;SDS011;11362;48.102;11.620;2023-03-26T19:05:13;8.80;;;1.73;;
22388;SDS011;11362;48.102;11.620;2023-03-26T19:07:40;12.23;;;1.70;;
22388;SDS011;11362;48.102;11.620;2023-03-26T19:10:08;9.83;;;1.57;;
22388;SDS011;11362;48.102;11.620;2023-03-26T19:12:39;12.47;;;2.00;;
22388;SDS011;11362;48.102;11.620;2023-03-26T19:15:06;11.27;;;1.90;;
22388;SDS011;11362;48.102;11.620;2023-03-26T19:17:38;7.93;;;1.90;;
22388;SDS011;11362;48.102;11.620;2023-03-26T19:20:12;9.63;;;1.60;;
22388;SDS011;11362;48.102;11.620;2023-03-26T19:22:41;12.73;;;1.70;;
22388;SDS011;11362;48.102;11.620;2023-03-26T19:25:14;8.93;;;1.90;;
22388;SDS011;11362;48.102;11.620;2023-03-26T19:27:44;10.30;;;1.90;;
22388;SDS011;11362;48.102;11.620;2023-03-26T19:30:10;8.47;;;1.70;;
22388;SDS011;11362;48.102;11.620;2023-03-26T19:32:50;8.03;;;2.10;;
22388;SDS011;11362;48.102;11.620;2023-03-26T19:35:18;7.30;;;2.23;;
22388;SDS011;11362;48.102;11.620;2023-03-26T19:37:49;9.00;;;2.03;;
22388;SDS011;11362;48.102;11.620;2023-03-26T19:40:22;4.77;;;1.77;;
22388;SDS011;11362;48.102;11.620;2023-03-26T19:42:48;10.53;;;2.77;;
22388;SDS011;11362;48.102;11.620;2023-03-26T19:45:17;12.90;;;2.10;;
22388;SDS011;11362;48.102;11.620;2023-03-26T19:47:45;8.53;;;1.90;;
22388;SDS011;11362;48.102;11.620;2023-03-26T19:50:28;13.70;;;2.50;;
22388;SDS011;11362;48.102;11.620;2023-03-26T19:55:34;13.90;;;1.97;;
22388;SDS011;11362;48.102;11.620;2023-03-26T19:58:00;4.27;;;1.40;;
22388;SDS011;11362;48.102;11.620;2023-03-26T20:00:25;5.63;;;1.63;;
22388;SDS011;11362;48.102;11.620;2023-03-26T20:02:50;6.30;;;1.63;;
22388;SDS011;11362;48.102;11.620;2023-03-26T20:05:23;5.03;;;1.57;;
22388;SDS011;11362;48.102;11.620;2023-03-26T20:07:50;4.97;;;2.17;;
22388;SDS011;11362;48.102;11.620;2023-03-26T20:10:18;11.33;;;1.90;;
22388;SDS011;11362;48.102;11.620;2023-03-26T20:12:43;10.63;;;2.27;;
22388;SDS011;11362;48.102;11.620;2023-03-26T20:17:40;7.33;;;1.60;;